sensor_id;sensor_type;location;lat;lon;timestamp;temperature;humidity
46900;DHT22;32647;49.382;7.078;2022-12-07T00:00:40;2.70;99.90
46900;DHT22;32647;49.382;7.078;2022-12-07T00:03:26;2.70;99.90
46900;DHT22;32647;49.382;7.078;2022-12-07T00:06:13;2.80;99.90
46900;DHT22;32647;49.382;7.078;2022-12-07T00:08:59;2.70;99.90
46900;DHT22;32647;49.382;7.078;2022-12-07T00:11:49;2.70;99.90
46900;DHT22;32647;49.382;7.078;2022-12-07T00:14:35;2.60;99.90
46900;DHT22;32647;49.382;7.078;2022-12-07T00:17:21;2.70;99.90
46900;DHT22;32647;49.382;7.078;2022-12-07T00:20:07;2.70;99.90
46900;DHT22;32647;49.382;7.078;2022-12-07T00:22:53;2.70;99.90
46900;DHT22;32647;49.382;7.078;2022-12-07T00:25:39;2.70;99.90
46900;DHT22;32647;49.382;7.078;2022-12-07T00:28:25;2.60;99.90
46900;DHT22;32647;49.382;7.078;2022-12-07T00:31:12;2.60;99.90
46900;DHT22;32647;49.382;7.078;2022-12-07T00:33:59;2.60;99.90
46900;DHT22;32647;49.382;7.078;2022-12-07T00:36:45;2.60;99.90
46900;DHT22;32647;49.382;7.078;2022-12-07T00:39:31;2.60;99.90
46900;DHT22;32647;49.382;7.078;2022-12-07T00:42:17;2.60;99.90
46900;DHT22;32647;49.382;7.078;2022-12-07T00:45:03;2.50;99.90
46900;DHT22;32647;49.382;7.078;2022-12-07T00:47:49;2.60;99.90
46900;DHT22;32647;49.382;7.078;2022-12-07T00:50:35;2.60;99.90
46900;DHT22;32647;49.382;7.078;2022-12-07T00:53:26;2.60;99.90
46900;DHT22;32647;49.382;7.078;2022-12-07T00:56:17;2.50;99.90
46900;DHT22;32647;49.382;7.078;2022-12-07T00:59:04;2.60;99.90
46900;DHT22;32647;49.382;7.078;2022-12-07T01:01:50;2.60;99.90
46900;DHT22;32647;49.382;7.078;2022-12-07T01:04:35;2.50;99.90
46900;DHT22;32647;49.382;7.078;2022-12-07T01:07:21;2.50;99.90
46900;DHT22;32647;49.382;7.078;2022-12-07T01:10:08;2.60;99.90
46900;DHT22;32647;49.382;7.078;2022-12-07T01:12:54;2.50;99.90
46900;DHT22;32647;49.382;7.078;2022-12-07T01:15:42;2.50;99.90
46900;DHT22;32647;49.382;7.078;2022-12-07T01:18:29;2.50;99.90
46900;DHT22;32647;49.382;7.078;2022-12-07T01:21:18;2.50;99.90
46900;DHT22;32647;49.382;7.078;2022-12-07T01:24:07;2.40;99.90
46900;DHT22;32647;49.382;7.078;2022-12-07T01:26:53;2.40;99.90
46900;DHT22;32647;49.382;7.078;2022-12-07T01:29:39;2.30;99.90
46900;DHT22;32647;49.382;7.078;2022-12-07T01:32:25;2.20;99.90
46900;DHT22;32647;49.382;7.078;2022-12-07T01:35:11;2.10;99.90
46900;DHT22;32647;49.382;7.078;2022-12-07T01:37:57;2.20;99.90
46900;DHT22;32647;49.382;7.078;2022-12-07T01:40:43;2.20;99.90
46900;DHT22;32647;49.382;7.078;2022-12-07T01:43:31;2.30;99.90
46900;DHT22;32647;49.382;7.078;2022-12-07T01:46:17;2.40;99.90
46900;DHT22;32647;49.382;7.078;2022-12-07T01:49:10;2.40;99.90
46900;DHT22;32647;49.382;7.078;2022-12-07T01:54:52;2.40;99.90
46900;DHT22;32647;49.382;7.078;2022-12-07T01:57:42;2.40;99.90
46900;DHT22;32647;49.382;7.078;2022-12-07T02:00:29;2.40;99.90
46900;DHT22;32647;49.382;7.078;2022-12-07T02:03:24;2.50;99.90
46900;DHT22;32647;49.382;7.078;2022-12-07T02:06:16;2.40;99.90
46900;DHT22;32647;49.382;7.078;2022-12-07T02:09:04;2.40;99.90
46900;DHT22;32647;49.382;7.078;2022-12-07T02:11:50;2.40;99.90
46900;DHT22;32647;49.382;7.078;2022-12-07T02:14:37;2.40;99.90
46900;DHT22;32647;49.382;7.078;2022-12-07T02:24:23;2.40;99.90
46900;DHT22;32647;49.382;7.078;2022-12-07T02:30:19;2.60;99.90
46900;DHT22;32647;49.382;7.078;2022-12-07T02:33:10;2.60;99.90
46900;DHT22;32647;49.382;7.078;2022-12-07T02:39:04;2.60;99.90
46900;DHT22;32647;49.382;7.078;2022-12-07T02:41:59;2.60;99.90
46900;DHT22;32647;49.382;7.078;2022-12-07T02:44:47;2.60;99.90
46900;DHT22;32647;49.382;7.078;2022-12-07T02:47:34;2.60;99.90
46900;DHT22;32647;49.382;7.078;2022-12-07T02:50:21;2.60;99.90
46900;DHT22;32647;49.382;7.078;2022-12-07T02:53:34;2.50;99.90
46900;DHT22;32647;49.382;7.078;2022-12-07T03:05:59;2.50;99.90
46900;DHT22;32647;49.382;7.078;2022-12-07T03:11:48;2.50;99.90
46900;DHT22;32647;49.382;7.078;2022-12-07T03:14:40;2.50;99.90
46900;DHT22;32647;49.382;7.078;2022-12-07T03:17:32;2.50;99.90
46900;DHT22;32647;49.382;7.078;2022-12-07T03:20:21;2.60;99.90
46900;DHT22;32647;49.382;7.078;2022-12-07T03:23:10;2.60;99.90
46900;DHT22;32647;49.382;7.078;2022-12-07T03:26:00;2.70;99.90
46900;DHT22;32647;49.382;7.078;2022-12-07T03:28:51;2.60;99.90
46900;DHT22;32647;49.382;7.078;2022-12-07T03:31:45;2.60;99.90
46900;DHT22;32647;49.382;7.078;2022-12-07T03:34:36;2.60;99.90
46900;DHT22;32647;49.382;7.078;2022-12-07T03:37:52;2.60;99.90
46900;DHT22;32647;49.382;7.078;2022-12-07T03:40:54;2.60;99.90
46900;DHT22;32647;49.382;7.078;2022-12-07T03:43:44;2.60;99.90
46900;DHT22;32647;49.382;7.078;2022-12-07T03:49:26;2.50;99.90
46900;DHT22;32647;49.382;7.078;2022-12-07T03:52:56;2.50;99.90
46900;DHT22;32647;49.382;7.078;2022-12-07T03:55:26;2.60;99.90
46900;DHT22;32647;49.382;7.078;2022-12-07T03:58:18;2.50;99.90
46900;DHT22;32647;49.382;7.078;2022-12-07T04:01:04;2.50;99.90
46900;DHT22;32647;49.382;7.078;2022-12-07T04:03:50;2.50;99.90
46900;DHT22;32647;49.382;7.078;2022-12-07T04:06:36;2.50;99.90
46900;DHT22;32647;49.382;7.078;2022-12-07T04:09:22;2.50;99.90
46900;DHT22;32647;49.382;7.078;2022-12-07T04:12:08;2.60;99.90
46900;DHT22;32647;49.382;7.078;2022-12-07T04:14:54;2.60;99.90
46900;DHT22;32647;49.382;7.078;2022-12-07T04:17:40;2.60;99.90
46900;DHT22;32647;49.382;7.078;2022-12-07T04:20:26;2.50;99.90
46900;DHT22;32647;49.382;7.078;2022-12-07T04:23:12;2.50;99.90
46900;DHT22;32647;49.382;7.078;2022-12-07T04:25:58;2.50;99.90
46900;DHT22;32647;49.382;7.078;2022-12-07T04:28:44;2.50;99.90
46900;DHT22;32647;49.382;7.078;2022-12-07T04:31:30;2.50;99.90
46900;DHT22;32647;49.382;7.078;2022-12-07T04:34:17;2.40;99.90
46900;DHT22;32647;49.382;7.078;2022-12-07T04:37:02;2.40;99.90
46900;DHT22;32647;49.382;7.078;2022-12-07T04:39:49;2.40;99.90
46900;DHT22;32647;49.382;7.078;2022-12-07T04:42:35;2.40;99.90
46900;DHT22;32647;49.382;7.078;2022-12-07T04:45:21;2.40;99.90
46900;DHT22;32647;49.382;7.078;2022-12-07T04:48:07;2.40;99.90
46900;DHT22;32647;49.382;7.078;2022-12-07T04:50:53;2.40;99.90
46900;DHT22;32647;49.382;7.078;2022-12-07T04:53:39;2.50;99.90
46900;DHT22;32647;49.382;7.078;2022-12-07T04:56:25;2.40;99.90
46900;DHT22;32647;49.382;7.078;2022-12-07T04:59:12;2.40;99.90
46900;DHT22;32647;49.382;7.078;2022-12-07T05:01:58;2.40;99.90
46900;DHT22;32647;49.382;7.078;2022-12-07T05:04:44;2.40;99.90
46900;DHT22;32647;49.382;7.078;2022-12-07T05:07:30;2.40;99.90
46900;DHT22;32647;49.382;7.078;2022-12-07T05:10:16;2.40;99.90
46900;DHT22;32647;49.382;7.078;2022-12-07T05:13:02;2.40;99.90
46900;DHT22;32647;49.382;7.078;2022-12-07T05:15:48;2.40;99.90
46900;DHT22;32647;49.382;7.078;2022-12-07T05:18:34;2.40;99.90
46900;DHT22;32647;49.382;7.078;2022-12-07T05:21:20;2.40;99.90
46900;DHT22;32647;49.382;7.078;2022-12-07T05:24:09;2.40;99.90
46900;DHT22;32647;49.382;7.078;2022-12-07T05:26:55;2.40;99.90
46900;DHT22;32647;49.382;7.078;2022-12-07T05:29:41;2.40;99.90
46900;DHT22;32647;49.382;7.078;2022-12-07T05:32:27;2.40;99.90
46900;DHT22;32647;49.382;7.078;2022-12-07T05:35:13;2.40;99.90
46900;DHT22;32647;49.382;7.078;2022-12-07T05:37:59;2.40;99.90
46900;DHT22;32647;49.382;7.078;2022-12-07T05:40:45;2.40;99.90
46900;DHT22;32647;49.382;7.078;2022-12-07T05:43:31;2.50;99.90
46900;DHT22;32647;49.382;7.078;2022-12-07T05:46:17;2.50;99.90
46900;DHT22;32647;49.382;7.078;2022-12-07T05:49:03;2.50;99.90
46900;DHT22;32647;49.382;7.078;2022-12-07T05:54:30;2.50;99.90
46900;DHT22;32647;49.382;7.078;2022-12-07T05:57:16;2.50;99.90
46900;DHT22;32647;49.382;7.078;2022-12-07T06:00:03;2.50;99.90
46900;DHT22;32647;49.382;7.078;2022-12-07T06:02:49;2.50;99.90
46900;DHT22;32647;49.382;7.078;2022-12-07T06:05:35;2.60;99.90
46900;DHT22;32647;49.382;7.078;2022-12-07T06:08:21;2.50;99.90
46900;DHT22;32647;49.382;7.078;2022-12-07T06:11:07;2.50;99.90
46900;DHT22;32647;49.382;7.078;2022-12-07T06:14:11;2.60;99.90
46900;DHT22;32647;49.382;7.078;2022-12-07T06:16:58;2.60;99.90
46900;DHT22;32647;49.382;7.078;2022-12-07T06:19:44;2.50;99.90
46900;DHT22;32647;49.382;7.078;2022-12-07T06:22:30;2.60;99.90
46900;DHT22;32647;49.382;7.078;2022-12-07T06:25:16;2.60;99.90
46900;DHT22;32647;49.382;7.078;2022-12-07T06:28:02;2.60;99.90
46900;DHT22;32647;49.382;7.078;2022-12-07T06:30:57;2.60;99.90
46900;DHT22;32647;49.382;7.078;2022-12-07T06:33:43;2.60;99.90
46900;DHT22;32647;49.382;7.078;2022-12-07T06:36:29;2.60;99.90
46900;DHT22;32647;49.382;7.078;2022-12-07T06:39:16;2.60;99.90
46900;DHT22;32647;49.382;7.078;2022-12-07T06:42:02;2.60;99.90
46900;DHT22;32647;49.382;7.078;2022-12-07T06:44:48;2.60;99.90
46900;DHT22;32647;49.382;7.078;2022-12-07T06:47:33;2.60;99.90
46900;DHT22;32647;49.382;7.078;2022-12-07T06:50:19;2.70;99.90
46900;DHT22;32647;49.382;7.078;2022-12-07T06:53:05;2.60;99.90
46900;DHT22;32647;49.382;7.078;2022-12-07T06:55:51;2.60;99.90
46900;DHT22;32647;49.382;7.078;2022-12-07T06:58:37;2.70;99.90
46900;DHT22;32647;49.382;7.078;2022-12-07T07:01:23;2.60;99.90
46900;DHT22;32647;49.382;7.078;2022-12-07T07:04:09;2.70;99.90
46900;DHT22;32647;49.382;7.078;2022-12-07T07:06:55;2.70;99.90
46900;DHT22;32647;49.382;7.078;2022-12-07T07:09:41;2.70;99.90
46900;DHT22;32647;49.382;7.078;2022-12-07T07:12:27;2.70;99.90
46900;DHT22;32647;49.382;7.078;2022-12-07T07:15:13;2.70;99.90
46900;DHT22;32647;49.382;7.078;2022-12-07T07:17:59;2.70;99.90
46900;DHT22;32647;49.382;7.078;2022-12-07T07:20:45;2.80;99.90
46900;DHT22;32647;49.382;7.078;2022-12-07T07:23:31;2.80;99.90
46900;DHT22;32647;49.382;7.078;2022-12-07T07:26:17;2.80;99.90
46900;DHT22;32647;49.382;7.078;2022-12-07T07:29:03;2.80;99.90
46900;DHT22;32647;49.382;7.078;2022-12-07T07:31:49;2.70;99.90
46900;DHT22;32647;49.382;7.078;2022-12-07T07:34:35;2.70;99.90
46900;DHT22;32647;49.382;7.078;2022-12-07T07:37:21;2.70;99.90
46900;DHT22;32647;49.382;7.078;2022-12-07T07:40:08;2.70;99.90
46900;DHT22;32647;49.382;7.078;2022-12-07T07:42:55;2.80;99.90
46900;DHT22;32647;49.382;7.078;2022-12-07T07:45:41;2.80;99.90
46900;DHT22;32647;49.382;7.078;2022-12-07T07:48:27;2.80;99.90
46900;DHT22;32647;49.382;7.078;2022-12-07T07:51:13;2.80;99.90
46900;DHT22;32647;49.382;7.078;2022-12-07T07:53:59;2.80;99.90
46900;DHT22;32647;49.382;7.078;2022-12-07T07:56:45;2.90;99.90
46900;DHT22;32647;49.382;7.078;2022-12-07T07:59:30;2.80;99.90
46900;DHT22;32647;49.382;7.078;2022-12-07T08:02:18;2.80;99.90
46900;DHT22;32647;49.382;7.078;2022-12-07T08:05:04;2.90;99.90
46900;DHT22;32647;49.382;7.078;2022-12-07T08:07:50;2.90;99.90
46900;DHT22;32647;49.382;7.078;2022-12-07T08:10:36;3.00;99.90
46900;DHT22;32647;49.382;7.078;2022-12-07T08:13:22;2.90;99.90
46900;DHT22;32647;49.382;7.078;2022-12-07T08:16:10;3.00;99.90
46900;DHT22;32647;49.382;7.078;2022-12-07T08:18:56;2.90;99.90
46900;DHT22;32647;49.382;7.078;2022-12-07T08:21:42;3.00;99.90
46900;DHT22;32647;49.382;7.078;2022-12-07T08:24:28;3.10;99.90
46900;DHT22;32647;49.382;7.078;2022-12-07T08:27:14;3.10;99.90
46900;DHT22;32647;49.382;7.078;2022-12-07T08:30:00;3.10;99.90
46900;DHT22;32647;49.382;7.078;2022-12-07T08:32:47;3.20;99.90
46900;DHT22;32647;49.382;7.078;2022-12-07T08:35:33;3.20;99.90
46900;DHT22;32647;49.382;7.078;2022-12-07T08:38:19;3.20;99.90
46900;DHT22;32647;49.382;7.078;2022-12-07T08:41:06;3.20;99.90
46900;DHT22;32647;49.382;7.078;2022-12-07T08:43:52;3.20;99.90
46900;DHT22;32647;49.382;7.078;2022-12-07T08:46:51;3.20;99.90
46900;DHT22;32647;49.382;7.078;2022-12-07T08:49:44;3.20;99.90
46900;DHT22;32647;49.382;7.078;2022-12-07T08:52:32;3.20;99.90
46900;DHT22;32647;49.382;7.078;2022-12-07T08:55:19;3.20;99.90
46900;DHT22;32647;49.382;7.078;2022-12-07T08:58:05;3.30;99.90
46900;DHT22;32647;49.382;7.078;2022-12-07T09:00:51;3.40;99.90
46900;DHT22;32647;49.382;7.078;2022-12-07T09:03:37;3.40;99.90
46900;DHT22;32647;49.382;7.078;2022-12-07T09:06:24;3.50;99.90
46900;DHT22;32647;49.382;7.078;2022-12-07T09:09:10;3.50;99.90
46900;DHT22;32647;49.382;7.078;2022-12-07T09:11:57;3.60;99.90
46900;DHT22;32647;49.382;7.078;2022-12-07T09:14:43;3.60;99.90
46900;DHT22;32647;49.382;7.078;2022-12-07T09:17:32;3.60;99.90
46900;DHT22;32647;49.382;7.078;2022-12-07T09:20:18;3.70;99.90
46900;DHT22;32647;49.382;7.078;2022-12-07T09:23:07;3.80;99.90
46900;DHT22;32647;49.382;7.078;2022-12-07T09:25:53;3.80;99.90
46900;DHT22;32647;49.382;7.078;2022-12-07T09:28:39;3.80;99.90
46900;DHT22;32647;49.382;7.078;2022-12-07T09:31:25;3.80;99.90
46900;DHT22;32647;49.382;7.078;2022-12-07T09:34:11;3.80;99.90
46900;DHT22;32647;49.382;7.078;2022-12-07T09:37:00;3.90;99.90
46900;DHT22;32647;49.382;7.078;2022-12-07T09:39:46;3.90;99.90
46900;DHT22;32647;49.382;7.078;2022-12-07T09:42:41;3.90;99.90
46900;DHT22;32647;49.382;7.078;2022-12-07T09:45:35;4.00;99.90
46900;DHT22;32647;49.382;7.078;2022-12-07T09:48:34;4.10;99.90
46900;DHT22;32647;49.382;7.078;2022-12-07T09:51:24;4.00;99.90
46900;DHT22;32647;49.382;7.078;2022-12-07T09:54:16;4.00;99.90
46900;DHT22;32647;49.382;7.078;2022-12-07T09:57:03;3.90;99.90
46900;DHT22;32647;49.382;7.078;2022-12-07T09:59:49;4.00;99.90
46900;DHT22;32647;49.382;7.078;2022-12-07T10:02:38;4.00;99.90
46900;DHT22;32647;49.382;7.078;2022-12-07T10:05:31;4.00;99.90
46900;DHT22;32647;49.382;7.078;2022-12-07T10:08:18;4.00;99.90
46900;DHT22;32647;49.382;7.078;2022-12-07T10:11:04;4.00;99.90
46900;DHT22;32647;49.382;7.078;2022-12-07T10:14:11;4.00;99.90
46900;DHT22;32647;49.382;7.078;2022-12-07T10:16:58;4.10;99.90
46900;DHT22;32647;49.382;7.078;2022-12-07T10:19:44;4.10;99.90
46900;DHT22;32647;49.382;7.078;2022-12-07T10:22:30;4.00;99.90
46900;DHT22;32647;49.382;7.078;2022-12-07T10:25:20;4.10;99.90
46900;DHT22;32647;49.382;7.078;2022-12-07T10:28:18;4.20;99.90
46900;DHT22;32647;49.382;7.078;2022-12-07T10:31:19;4.30;99.90
46900;DHT22;32647;49.382;7.078;2022-12-07T10:34:25;4.30;99.90
46900;DHT22;32647;49.382;7.078;2022-12-07T10:40:24;4.40;99.90
46900;DHT22;32647;49.382;7.078;2022-12-07T10:58:44;4.50;99.90
46900;DHT22;32647;49.382;7.078;2022-12-07T11:02:06;4.50;99.90
46900;DHT22;32647;49.382;7.078;2022-12-07T11:05:17;4.60;99.90
46900;DHT22;32647;49.382;7.078;2022-12-07T11:08:34;4.60;99.90
46900;DHT22;32647;49.382;7.078;2022-12-07T11:11:40;4.50;99.90
46900;DHT22;32647;49.382;7.078;2022-12-07T11:14:48;4.60;99.90
46900;DHT22;32647;49.382;7.078;2022-12-07T11:23:54;4.70;99.90
46900;DHT22;32647;49.382;7.078;2022-12-07T11:30:19;4.60;99.90
46900;DHT22;32647;49.382;7.078;2022-12-07T11:38:53;4.60;99.90
46900;DHT22;32647;49.382;7.078;2022-12-07T11:41:41;4.60;99.90
46900;DHT22;32647;49.382;7.078;2022-12-07T11:44:35;4.60;99.90
46900;DHT22;32647;49.382;7.078;2022-12-07T11:47:54;4.60;99.90
46900;DHT22;32647;49.382;7.078;2022-12-07T11:50:50;4.70;99.90
46900;DHT22;32647;49.382;7.078;2022-12-07T11:53:41;4.60;99.90
46900;DHT22;32647;49.382;7.078;2022-12-07T11:56:29;4.50;99.90
46900;DHT22;32647;49.382;7.078;2022-12-07T11:59:32;4.50;99.90
46900;DHT22;32647;49.382;7.078;2022-12-07T12:02:26;4.60;99.90
46900;DHT22;32647;49.382;7.078;2022-12-07T12:05:18;4.70;99.90
46900;DHT22;32647;49.382;7.078;2022-12-07T12:08:18;4.70;99.90
46900;DHT22;32647;49.382;7.078;2022-12-07T12:23:32;4.60;99.90
46900;DHT22;32647;49.382;7.078;2022-12-07T12:26:25;4.60;99.90
46900;DHT22;32647;49.382;7.078;2022-12-07T12:29:28;4.60;99.90
46900;DHT22;32647;49.382;7.078;2022-12-07T12:32:39;4.70;99.90
46900;DHT22;32647;49.382;7.078;2022-12-07T12:38:31;4.60;99.90
46900;DHT22;32647;49.382;7.078;2022-12-07T12:41:54;4.70;99.90
46900;DHT22;32647;49.382;7.078;2022-12-07T12:44:41;4.70;99.90
46900;DHT22;32647;49.382;7.078;2022-12-07T12:47:58;4.60;99.90
46900;DHT22;32647;49.382;7.078;2022-12-07T12:50:44;4.60;99.90
46900;DHT22;32647;49.382;7.078;2022-12-07T12:53:30;4.60;99.90
46900;DHT22;32647;49.382;7.078;2022-12-07T12:56:23;4.60;99.90
46900;DHT22;32647;49.382;7.078;2022-12-07T12:59:23;4.60;99.90
46900;DHT22;32647;49.382;7.078;2022-12-07T13:02:20;4.60;99.90
46900;DHT22;32647;49.382;7.078;2022-12-07T13:07:58;4.60;99.90
46900;DHT22;32647;49.382;7.078;2022-12-07T13:10:46;4.60;99.90
46900;DHT22;32647;49.382;7.078;2022-12-07T13:13:33;4.60;99.90
46900;DHT22;32647;49.382;7.078;2022-12-07T13:25:30;4.60;99.90
46900;DHT22;32647;49.382;7.078;2022-12-07T13:28:20;4.50;99.90
46900;DHT22;32647;49.382;7.078;2022-12-07T13:34:32;4.50;99.90
46900;DHT22;32647;49.382;7.078;2022-12-07T13:37:26;4.40;99.90
46900;DHT22;32647;49.382;7.078;2022-12-07T13:40:21;4.40;99.90
46900;DHT22;32647;49.382;7.078;2022-12-07T13:43:15;4.40;99.90
46900;DHT22;32647;49.382;7.078;2022-12-07T13:46:07;4.40;99.90
46900;DHT22;32647;49.382;7.078;2022-12-07T13:48:54;4.40;99.90
46900;DHT22;32647;49.382;7.078;2022-12-07T13:51:41;4.40;99.90
46900;DHT22;32647;49.382;7.078;2022-12-07T13:54:27;4.40;99.90
46900;DHT22;32647;49.382;7.078;2022-12-07T13:57:13;4.30;99.90
46900;DHT22;32647;49.382;7.078;2022-12-07T14:00:00;4.30;99.90
46900;DHT22;32647;49.382;7.078;2022-12-07T14:03:04;4.30;99.90
46900;DHT22;32647;49.382;7.078;2022-12-07T14:09:17;4.30;99.90
46900;DHT22;32647;49.382;7.078;2022-12-07T14:12:05;4.30;99.90
46900;DHT22;32647;49.382;7.078;2022-12-07T14:14:52;4.30;99.90
46900;DHT22;32647;49.382;7.078;2022-12-07T14:17:50;4.30;99.90
46900;DHT22;32647;49.382;7.078;2022-12-07T14:20:39;4.20;99.90
46900;DHT22;32647;49.382;7.078;2022-12-07T14:23:26;4.20;99.90
46900;DHT22;32647;49.382;7.078;2022-12-07T14:26:19;4.20;99.90
46900;DHT22;32647;49.382;7.078;2022-12-07T14:32:31;4.20;99.90
46900;DHT22;32647;49.382;7.078;2022-12-07T14:35:18;4.10;99.90
46900;DHT22;32647;49.382;7.078;2022-12-07T14:38:04;4.10;99.90
46900;DHT22;32647;49.382;7.078;2022-12-07T14:40:51;4.20;99.90
46900;DHT22;32647;49.382;7.078;2022-12-07T14:43:38;4.30;99.90
46900;DHT22;32647;49.382;7.078;2022-12-07T14:46:24;4.20;99.90
46900;DHT22;32647;49.382;7.078;2022-12-07T14:49:10;4.20;99.90
46900;DHT22;32647;49.382;7.078;2022-12-07T14:51:55;4.20;99.90
46900;DHT22;32647;49.382;7.078;2022-12-07T14:54:42;4.20;99.90
46900;DHT22;32647;49.382;7.078;2022-12-07T14:57:28;4.20;99.90
46900;DHT22;32647;49.382;7.078;2022-12-07T15:00:15;4.10;99.90
46900;DHT22;32647;49.382;7.078;2022-12-07T15:03:02;4.20;99.90
46900;DHT22;32647;49.382;7.078;2022-12-07T15:05:48;4.20;99.90
46900;DHT22;32647;49.382;7.078;2022-12-07T15:08:34;4.20;99.90
46900;DHT22;32647;49.382;7.078;2022-12-07T15:11:21;4.20;99.90
46900;DHT22;32647;49.382;7.078;2022-12-07T15:14:07;4.20;99.90
46900;DHT22;32647;49.382;7.078;2022-12-07T15:16:53;4.10;99.90
46900;DHT22;32647;49.382;7.078;2022-12-07T15:19:39;4.10;99.90
46900;DHT22;32647;49.382;7.078;2022-12-07T15:22:25;4.00;99.90
46900;DHT22;32647;49.382;7.078;2022-12-07T15:25:14;4.00;99.90
46900;DHT22;32647;49.382;7.078;2022-12-07T15:28:00;4.00;99.90
46900;DHT22;32647;49.382;7.078;2022-12-07T15:30:46;4.00;99.90
46900;DHT22;32647;49.382;7.078;2022-12-07T15:33:32;4.00;99.90
46900;DHT22;32647;49.382;7.078;2022-12-07T15:36:23;4.00;99.90
46900;DHT22;32647;49.382;7.078;2022-12-07T15:39:10;3.90;99.90
46900;DHT22;32647;49.382;7.078;2022-12-07T15:41:56;3.90;99.90
46900;DHT22;32647;49.382;7.078;2022-12-07T15:44:42;3.80;99.90
46900;DHT22;32647;49.382;7.078;2022-12-07T15:47:46;3.70;99.90
46900;DHT22;32647;49.382;7.078;2022-12-07T15:50:32;3.60;99.90
46900;DHT22;32647;49.382;7.078;2022-12-07T15:53:18;3.50;99.90
46900;DHT22;32647;49.382;7.078;2022-12-07T15:56:08;3.30;99.90
46900;DHT22;32647;49.382;7.078;2022-12-07T15:58:56;3.20;99.90
46900;DHT22;32647;49.382;7.078;2022-12-07T16:01:42;3.20;99.90
46900;DHT22;32647;49.382;7.078;2022-12-07T16:04:29;3.00;99.90
46900;DHT22;32647;49.382;7.078;2022-12-07T16:07:15;3.00;99.90
46900;DHT22;32647;49.382;7.078;2022-12-07T16:10:01;2.90;99.90
46900;DHT22;32647;49.382;7.078;2022-12-07T16:12:47;2.90;99.90
46900;DHT22;32647;49.382;7.078;2022-12-07T16:15:38;2.80;99.90
46900;DHT22;32647;49.382;7.078;2022-12-07T16:18:24;2.90;99.90
46900;DHT22;32647;49.382;7.078;2022-12-07T16:21:10;2.90;99.90
46900;DHT22;32647;49.382;7.078;2022-12-07T16:23:57;2.90;99.90
46900;DHT22;32647;49.382;7.078;2022-12-07T16:26:44;2.90;99.90
46900;DHT22;32647;49.382;7.078;2022-12-07T16:29:30;2.90;99.90
46900;DHT22;32647;49.382;7.078;2022-12-07T16:32:16;2.80;99.90
46900;DHT22;32647;49.382;7.078;2022-12-07T16:35:02;2.90;99.90
46900;DHT22;32647;49.382;7.078;2022-12-07T16:37:48;2.90;99.90
46900;DHT22;32647;49.382;7.078;2022-12-07T16:40:34;2.90;99.90
46900;DHT22;32647;49.382;7.078;2022-12-07T16:43:20;2.90;99.90
46900;DHT22;32647;49.382;7.078;2022-12-07T16:46:06;3.00;99.90
46900;DHT22;32647;49.382;7.078;2022-12-07T16:48:52;3.00;99.90
46900;DHT22;32647;49.382;7.078;2022-12-07T16:51:38;3.00;99.90
46900;DHT22;32647;49.382;7.078;2022-12-07T16:54:24;3.10;99.90
46900;DHT22;32647;49.382;7.078;2022-12-07T16:57:11;3.00;99.90
46900;DHT22;32647;49.382;7.078;2022-12-07T16:59:57;3.00;99.90
46900;DHT22;32647;49.382;7.078;2022-12-07T17:02:43;3.10;99.90
46900;DHT22;32647;49.382;7.078;2022-12-07T17:05:29;3.00;99.90
46900;DHT22;32647;49.382;7.078;2022-12-07T17:08:15;3.00;99.90
46900;DHT22;32647;49.382;7.078;2022-12-07T17:11:01;3.00;99.90
46900;DHT22;32647;49.382;7.078;2022-12-07T17:13:54;3.00;99.90
46900;DHT22;32647;49.382;7.078;2022-12-07T17:16:59;3.10;99.90
46900;DHT22;32647;49.382;7.078;2022-12-07T17:19:45;3.10;99.90
46900;DHT22;32647;49.382;7.078;2022-12-07T17:22:30;3.10;99.90
46900;DHT22;32647;49.382;7.078;2022-12-07T17:25:17;3.10;99.90
46900;DHT22;32647;49.382;7.078;2022-12-07T17:28:03;3.10;99.90
46900;DHT22;32647;49.382;7.078;2022-12-07T17:30:49;3.10;99.90
46900;DHT22;32647;49.382;7.078;2022-12-07T17:33:35;3.00;99.90
46900;DHT22;32647;49.382;7.078;2022-12-07T17:36:27;3.10;99.90
46900;DHT22;32647;49.382;7.078;2022-12-07T17:39:18;3.10;99.90
46900;DHT22;32647;49.382;7.078;2022-12-07T17:42:04;3.10;99.90
46900;DHT22;32647;49.382;7.078;2022-12-07T17:45:09;3.10;99.90
46900;DHT22;32647;49.382;7.078;2022-12-07T17:47:55;3.10;99.90
46900;DHT22;32647;49.382;7.078;2022-12-07T17:50:41;3.10;99.90
46900;DHT22;32647;49.382;7.078;2022-12-07T17:53:50;3.10;99.90
46900;DHT22;32647;49.382;7.078;2022-12-07T17:56:36;3.10;99.90
46900;DHT22;32647;49.382;7.078;2022-12-07T17:59:24;3.10;99.90
46900;DHT22;32647;49.382;7.078;2022-12-07T18:02:10;3.20;99.90
46900;DHT22;32647;49.382;7.078;2022-12-07T18:04:56;3.10;99.90
46900;DHT22;32647;49.382;7.078;2022-12-07T18:07:42;3.00;99.90
46900;DHT22;32647;49.382;7.078;2022-12-07T18:10:28;3.00;99.90
46900;DHT22;32647;49.382;7.078;2022-12-07T18:13:14;3.00;99.90
46900;DHT22;32647;49.382;7.078;2022-12-07T18:16:21;3.00;99.90
46900;DHT22;32647;49.382;7.078;2022-12-07T18:19:08;3.00;99.90
46900;DHT22;32647;49.382;7.078;2022-12-07T18:21:54;3.00;99.90
46900;DHT22;32647;49.382;7.078;2022-12-07T18:24:40;3.00;99.90
46900;DHT22;32647;49.382;7.078;2022-12-07T18:27:26;3.00;99.90
46900;DHT22;32647;49.382;7.078;2022-12-07T18:30:12;3.00;99.90
46900;DHT22;32647;49.382;7.078;2022-12-07T18:32:58;3.00;99.90
46900;DHT22;32647;49.382;7.078;2022-12-07T18:35:45;3.10;99.90
46900;DHT22;32647;49.382;7.078;2022-12-07T18:38:32;3.10;99.90
46900;DHT22;32647;49.382;7.078;2022-12-07T18:41:18;3.10;99.90
46900;DHT22;32647;49.382;7.078;2022-12-07T18:44:05;3.10;99.90
46900;DHT22;32647;49.382;7.078;2022-12-07T18:46:52;3.10;99.90
46900;DHT22;32647;49.382;7.078;2022-12-07T18:49:38;3.10;99.90
46900;DHT22;32647;49.382;7.078;2022-12-07T18:52:23;3.10;99.90
46900;DHT22;32647;49.382;7.078;2022-12-07T18:55:09;3.10;99.90
46900;DHT22;32647;49.382;7.078;2022-12-07T18:57:56;3.10;99.90
46900;DHT22;32647;49.382;7.078;2022-12-07T19:00:43;3.10;99.90
46900;DHT22;32647;49.382;7.078;2022-12-07T19:03:30;3.00;99.90
46900;DHT22;32647;49.382;7.078;2022-12-07T19:06:16;3.00;99.90
46900;DHT22;32647;49.382;7.078;2022-12-07T19:09:03;3.00;99.90
46900;DHT22;32647;49.382;7.078;2022-12-07T19:11:49;3.00;99.90
46900;DHT22;32647;49.382;7.078;2022-12-07T19:14:36;3.00;99.90
46900;DHT22;32647;49.382;7.078;2022-12-07T19:17:22;3.00;99.90
46900;DHT22;32647;49.382;7.078;2022-12-07T19:20:12;3.00;99.90
46900;DHT22;32647;49.382;7.078;2022-12-07T19:22:58;3.00;99.90
46900;DHT22;32647;49.382;7.078;2022-12-07T19:25:44;3.00;99.90
46900;DHT22;32647;49.382;7.078;2022-12-07T19:28:30;3.00;99.90
46900;DHT22;32647;49.382;7.078;2022-12-07T19:31:24;3.00;99.90
46900;DHT22;32647;49.382;7.078;2022-12-07T19:34:12;3.00;99.90
46900;DHT22;32647;49.382;7.078;2022-12-07T19:36:58;2.90;99.90
46900;DHT22;32647;49.382;7.078;2022-12-07T19:39:46;2.90;99.90
46900;DHT22;32647;49.382;7.078;2022-12-07T19:42:33;2.80;99.90
46900;DHT22;32647;49.382;7.078;2022-12-07T19:45:20;2.90;99.90
46900;DHT22;32647;49.382;7.078;2022-12-07T19:48:06;2.90;99.90